createdAt,value
2017-05-05T00:00:01.147Z,11.1
2017-05-05T00:01:02.976Z,11
2017-05-05T00:02:04.817Z,11.1
2017-05-05T00:03:06.649Z,11.1
2017-05-05T00:04:08.499Z,11.1
2017-05-05T00:05:10.337Z,11.1
2017-05-05T00:06:12.186Z,11.1
2017-05-05T00:07:14.365Z,11.1
2017-05-05T00:08:16.203Z,11.1
2017-05-05T00:09:18.054Z,11
2017-05-05T00:10:19.892Z,11
2017-05-05T00:11:21.755Z,11.1
2017-05-05T00:12:23.593Z,11
2017-05-05T00:13:25.435Z,11
2017-05-05T00:14:27.276Z,11
2017-05-05T00:15:29.112Z,11
2017-05-05T00:16:30.953Z,11.1
2017-05-05T00:17:32.796Z,11.1
2017-05-05T00:18:34.983Z,11.1
2017-05-05T00:19:36.827Z,11.1
2017-05-05T00:20:38.664Z,11.1
2017-05-05T00:21:40.505Z,11.1
2017-05-05T00:22:42.349Z,11.1
2017-05-05T00:23:44.194Z,11
2017-05-05T00:24:46.034Z,11
2017-05-05T00:25:48.219Z,11
2017-05-05T00:26:50.419Z,11
2017-05-05T00:27:52.255Z,11
2017-05-05T00:28:54.443Z,11
2017-05-05T00:29:56.286Z,11
2017-05-05T00:30:58.133Z,10.9
2017-05-05T00:32:00.319Z,11
2017-05-05T00:33:02.835Z,11
2017-05-05T00:34:04.672Z,10.9
2017-05-05T00:35:06.511Z,11
2017-05-05T00:36:08.352Z,11
2017-05-05T00:37:10.193Z,11
2017-05-05T00:38:12.026Z,11
2017-05-05T00:39:13.870Z,11
2017-05-05T00:40:15.706Z,11.1
2017-05-05T00:41:17.564Z,11
2017-05-05T00:42:19.408Z,11
2017-05-05T00:43:21.252Z,11
2017-05-05T00:44:23.093Z,11
2017-05-05T00:45:24.927Z,11
2017-05-05T00:46:26.772Z,11
2017-05-05T00:47:28.615Z,11
2017-05-05T00:48:30.451Z,11
2017-05-05T00:49:32.298Z,11
2017-05-05T00:50:34.135Z,11
2017-05-05T00:51:35.982Z,10.9
2017-05-05T00:52:37.829Z,10.9
2017-05-05T00:53:40.349Z,10.9
2017-05-05T00:54:42.189Z,10.9
2017-05-05T00:55:44.035Z,11
2017-05-05T00:56:45.871Z,10.9
2017-05-05T00:57:48.061Z,10.9
2017-05-05T00:58:49.904Z,10.9
2017-05-05T00:59:51.751Z,10.9
2017-05-05T01:00:53.612Z,10.9
2017-05-05T01:01:55.452Z,10.9
2017-05-05T01:02:57.287Z,10.9
2017-05-05T01:03:59.150Z,10.9
2017-05-05T01:05:00.982Z,10.9
2017-05-05T01:06:02.831Z,10.9
2017-05-05T01:07:04.676Z,10.9
2017-05-05T01:08:06.525Z,10.9
2017-05-05T01:09:08.364Z,10.9
2017-05-05T01:10:10.209Z,10.9
2017-05-05T01:11:12.381Z,10.9
2017-05-05T01:12:14.220Z,10.9
2017-05-05T01:13:16.056Z,10.9
2017-05-05T01:14:17.907Z,10.9
2017-05-05T01:15:20.110Z,11
2017-05-05T01:16:21.948Z,10.9
2017-05-05T01:17:23.791Z,11
2017-05-05T01:18:25.629Z,11
2017-05-05T01:19:27.812Z,11
2017-05-05T01:20:29.659Z,11
2017-05-05T01:21:31.503Z,11
2017-05-05T01:22:33.350Z,11
2017-05-05T01:23:35.183Z,11
2017-05-05T01:24:37.021Z,11
2017-05-05T01:25:38.853Z,11
2017-05-05T01:26:40.690Z,11
2017-05-05T01:27:42.871Z,11
2017-05-05T01:28:45.048Z,10.9
2017-05-05T01:29:46.898Z,10.9
2017-05-05T01:30:48.740Z,10.9
2017-05-05T01:31:50.580Z,10.9
2017-05-05T01:32:52.417Z,11
2017-05-05T01:33:54.254Z,11
2017-05-05T01:34:56.093Z,10.9
2017-05-05T01:35:57.942Z,10.9
2017-05-05T01:36:59.785Z,11
2017-05-05T01:38:01.630Z,11
2017-05-05T01:39:03.465Z,11
2017-05-05T01:40:05.646Z,11
2017-05-05T01:41:07.490Z,11
2017-05-05T01:42:09.331Z,11
2017-05-05T01:43:11.511Z,11
2017-05-05T01:44:13.350Z,10.9
2017-05-05T01:45:15.208Z,10.9
2017-05-05T01:46:17.043Z,11
2017-05-05T01:47:19.228Z,11
2017-05-05T01:48:21.064Z,11
2017-05-05T01:49:22.914Z,11
2017-05-05T01:50:25.095Z,11
2017-05-05T01:51:26.932Z,11
2017-05-05T01:52:28.769Z,11
2017-05-05T01:53:30.607Z,11
2017-05-05T01:54:32.442Z,11.1
2017-05-05T01:55:34.288Z,11
2017-05-05T01:56:36.122Z,11
2017-05-05T01:57:37.965Z,11
2017-05-05T01:58:39.805Z,11
2017-05-05T01:59:41.657Z,11
2017-05-05T02:00:43.838Z,11
2017-05-05T02:01:45.687Z,11
2017-05-05T02:02:47.543Z,11.1
2017-05-05T02:03:49.383Z,11
2017-05-05T02:04:51.230Z,11
2017-05-05T02:05:53.061Z,11
2017-05-05T02:06:54.908Z,11
2017-05-05T02:07:56.751Z,11
2017-05-05T02:08:58.606Z,11
2017-05-05T02:10:00.798Z,11
2017-05-05T02:11:02.643Z,11
2017-05-05T02:12:04.489Z,11.1
2017-05-05T02:13:06.670Z,11
2017-05-05T02:14:08.515Z,11
2017-05-05T02:15:10.356Z,11
2017-05-05T02:16:12.195Z,11
2017-05-05T02:17:14.037Z,11
2017-05-05T02:18:15.873Z,11.1
2017-05-05T02:19:17.718Z,11
2017-05-05T02:20:19.552Z,11.1
2017-05-05T02:21:21.399Z,11.1
2017-05-05T02:22:23.237Z,11
2017-05-05T02:23:25.082Z,11
2017-05-05T02:24:26.927Z,11
2017-05-05T02:25:28.776Z,11.1
2017-05-05T02:26:30.615Z,11.1
2017-05-05T02:27:32.455Z,11.1
2017-05-05T02:28:34.309Z,11.1
2017-05-05T02:29:36.495Z,11.2
2017-05-05T02:30:38.329Z,11.1
2017-05-05T02:31:40.166Z,11.2
2017-05-05T02:32:42.007Z,11.2
2017-05-05T02:33:44.219Z,11.2
2017-05-05T02:34:46.397Z,11.2
2017-05-05T02:35:48.238Z,11.2
2017-05-05T02:36:50.074Z,11.2
2017-05-05T02:37:51.910Z,11.2
2017-05-05T02:38:53.748Z,11.2
2017-05-05T02:39:55.581Z,11.2
2017-05-05T02:40:57.449Z,11.2
2017-05-05T02:41:59.632Z,11.2
2017-05-05T02:43:01.814Z,11.2
2017-05-05T02:44:03.656Z,11.2
2017-05-05T02:45:05.491Z,11.2
2017-05-05T02:46:07.335Z,11.2
2017-05-05T02:47:09.174Z,11.2
2017-05-05T02:48:11.019Z,11.2
2017-05-05T02:49:12.862Z,11.2
2017-05-05T02:50:14.704Z,11.2
2017-05-05T02:51:16.562Z,11.1
2017-05-05T02:52:18.407Z,11.2
2017-05-05T02:53:20.243Z,11.2
2017-05-05T02:54:22.085Z,11.2
2017-05-05T02:55:23.936Z,11.2
2017-05-05T02:56:25.775Z,11.2
2017-05-05T02:57:27.624Z,11.2
2017-05-05T02:58:29.797Z,11.2
2017-05-05T02:59:31.640Z,11.2
2017-05-05T03:00:33.485Z,11.2
2017-05-05T03:01:35.326Z,11.2
2017-05-05T03:02:37.502Z,11.2
2017-05-05T03:03:39.694Z,11.2
2017-05-05T03:04:41.533Z,11.2
2017-05-05T03:05:43.369Z,11.2
2017-05-05T03:06:45.211Z,11.1
2017-05-05T03:07:47.056Z,11.1
2017-05-05T03:08:49.231Z,11.1
2017-05-05T03:09:51.075Z,11.1
2017-05-05T03:10:52.918Z,11.1
2017-05-05T03:11:54.760Z,11.1
2017-05-05T03:12:56.603Z,11.1
2017-05-05T03:13:58.449Z,11.1
2017-05-05T03:15:00.630Z,11.1
2017-05-05T03:16:02.466Z,11.1
2017-05-05T03:17:04.304Z,11.1
2017-05-05T03:18:06.138Z,11.1
2017-05-05T03:19:07.978Z,11.1
2017-05-05T03:20:09.821Z,11.1
2017-05-05T03:21:11.666Z,11.1
2017-05-05T03:22:13.846Z,11.1
2017-05-05T03:23:15.687Z,11.1
2017-05-05T03:24:17.560Z,11.1
2017-05-05T03:25:19.410Z,11.1
2017-05-05T03:26:21.248Z,11.1
2017-05-05T03:27:23.095Z,11.1
2017-05-05T03:28:24.931Z,11.1
2017-05-05T03:29:26.776Z,11.1
2017-05-05T03:30:28.627Z,11.1
2017-05-05T03:31:30.462Z,11.1
2017-05-05T03:32:32.300Z,11.1
2017-05-05T03:33:34.151Z,11.1
2017-05-05T03:34:36.330Z,11.2
2017-05-05T03:35:38.165Z,11.2
2017-05-05T03:36:40.015Z,11.2
2017-05-05T03:37:41.851Z,11.2
2017-05-05T03:38:43.705Z,11.2
2017-05-05T03:39:45.549Z,11.2
2017-05-05T03:40:47.394Z,11.2
2017-05-05T03:41:49.238Z,11.2
2017-05-05T03:42:51.079Z,11.2
2017-05-05T03:43:52.915Z,11.2
2017-05-05T03:44:54.762Z,11.2
2017-05-05T03:45:56.600Z,11.2
2017-05-05T03:46:58.450Z,11.2
2017-05-05T03:48:00.294Z,11.1
2017-05-05T03:49:02.133Z,11.2
2017-05-05T03:50:03.970Z,11.2
2017-05-05T03:51:05.813Z,11.2
2017-05-05T03:52:07.651Z,11.2
2017-05-05T03:53:09.485Z,11.2
2017-05-05T03:54:11.327Z,11.2
2017-05-05T03:55:13.169Z,11.2
2017-05-05T03:56:15.011Z,11.2
2017-05-05T03:57:16.855Z,11.2
2017-05-05T03:58:18.694Z,11.2
2017-05-05T03:59:20.879Z,11.2
2017-05-05T04:00:23.065Z,11.2
2017-05-05T04:01:24.908Z,11.2
2017-05-05T04:02:26.754Z,11.2
2017-05-05T04:03:28.940Z,11.2
2017-05-05T04:04:30.777Z,11.2
2017-05-05T04:05:32.613Z,11.2
2017-05-05T04:06:34.806Z,11.2
2017-05-05T04:07:36.640Z,11.2
2017-05-05T04:08:38.827Z,11.2
2017-05-05T04:09:40.673Z,11.2
2017-05-05T04:10:42.856Z,11.2
2017-05-05T04:11:44.704Z,11.2
2017-05-05T04:12:46.883Z,11.2
2017-05-05T04:13:48.727Z,11.3
2017-05-05T04:14:50.562Z,11.3
2017-05-05T04:15:52.411Z,11.3
2017-05-05T04:16:54.240Z,11.2
2017-05-05T04:17:56.087Z,11.3
2017-05-05T04:18:57.932Z,11.3
2017-05-05T04:19:59.780Z,11.3
2017-05-05T04:21:01.622Z,11.3
2017-05-05T04:22:03.456Z,11.2
2017-05-05T04:23:05.296Z,11.2
2017-05-05T04:24:07.141Z,11.2
2017-05-05T04:25:08.982Z,11.2
2017-05-05T04:26:10.820Z,11.2
2017-05-05T04:27:12.657Z,11.2
2017-05-05T04:28:14.498Z,11.2
2017-05-05T04:29:16.333Z,11.3
2017-05-05T04:30:18.171Z,11.3
2017-05-05T04:31:20.016Z,11.3
2017-05-05T04:32:21.859Z,11.3
2017-05-05T04:33:24.382Z,11.3
2017-05-05T04:34:26.561Z,11.4
2017-05-05T04:35:28.401Z,11.4
2017-05-05T04:36:30.239Z,11.4
2017-05-05T04:37:32.422Z,11.4
2017-05-05T04:38:34.625Z,11.4
2017-05-05T04:39:36.461Z,11.5
2017-05-05T04:40:38.313Z,11.5
2017-05-05T04:41:40.150Z,11.4
2017-05-05T04:42:41.990Z,11.5
2017-05-05T04:43:43.826Z,11.5
2017-05-05T04:44:45.684Z,11.5
2017-05-05T04:45:47.875Z,11.5
2017-05-05T04:46:49.719Z,11.5
2017-05-05T04:47:51.561Z,11.5
2017-05-05T04:48:53.407Z,11.5
2017-05-05T04:49:55.598Z,11.5
2017-05-05T04:50:57.785Z,11.5
2017-05-05T04:51:59.624Z,11.5
2017-05-05T04:53:01.471Z,11.5
2017-05-05T04:54:03.321Z,11.5
2017-05-05T04:55:05.163Z,11.5
2017-05-05T04:56:07.012Z,11.4
2017-05-05T04:57:08.852Z,11.4
2017-05-05T04:58:10.695Z,11.4
2017-05-05T04:59:12.533Z,11.5
2017-05-05T05:00:14.365Z,11.5
2017-05-05T05:01:16.207Z,11.5
2017-05-05T05:02:18.063Z,11.5
2017-05-05T05:03:19.902Z,11.5
2017-05-05T05:04:21.753Z,11.5
2017-05-05T05:05:23.590Z,11.5
2017-05-05T05:06:25.426Z,11.5
2017-05-05T05:07:27.266Z,11.5
2017-05-05T05:08:29.113Z,11.5
2017-05-05T05:09:30.956Z,11.5
2017-05-05T05:10:32.829Z,11.5
2017-05-05T05:11:35.377Z,11.5
2017-05-05T05:12:37.306Z,11.5
2017-05-05T05:13:39.141Z,11.5
2017-05-05T05:14:40.982Z,11.5
2017-05-05T05:15:42.834Z,11.4
2017-05-05T05:16:44.679Z,11.5
2017-05-05T05:17:46.543Z,11.5
2017-05-05T05:18:48.407Z,11.5
2017-05-05T05:19:50.252Z,11.5
2017-05-05T05:20:52.144Z,11.5
2017-05-05T05:21:54.001Z,11.5
2017-05-05T05:22:55.859Z,11.5
2017-05-05T05:23:57.723Z,11.6
2017-05-05T05:24:59.587Z,11.6
2017-05-05T05:26:01.437Z,11.6
2017-05-05T05:27:03.304Z,11.6
2017-05-05T05:28:05.521Z,11.6
2017-05-05T05:29:07.383Z,11.7
2017-05-05T05:30:09.607Z,11.7
2017-05-05T05:31:11.455Z,11.7
2017-05-05T05:32:13.323Z,11.7
2017-05-05T05:33:15.166Z,11.7
2017-05-05T05:34:17.386Z,11.7
2017-05-05T05:35:19.602Z,11.7
2017-05-05T05:36:21.449Z,11.7
2017-05-05T05:37:23.292Z,11.7
2017-05-05T05:38:25.147Z,11.7
2017-05-05T05:39:27.002Z,11.7
2017-05-05T05:40:28.877Z,11.7
2017-05-05T05:41:30.729Z,11.7
2017-05-05T05:42:32.573Z,11.7
2017-05-05T05:43:34.781Z,11.7
2017-05-05T05:44:36.650Z,11.7
2017-05-05T05:45:38.489Z,11.7
2017-05-05T05:46:40.336Z,11.7
2017-05-05T05:47:42.176Z,11.7
2017-05-05T05:48:44.364Z,11.7
2017-05-05T05:49:46.206Z,11.7
2017-05-05T05:50:48.383Z,11.7
2017-05-05T05:51:50.236Z,11.7
2017-05-05T05:52:52.087Z,11.7
2017-05-05T05:53:54.265Z,11.7
2017-05-05T05:54:56.120Z,11.7
2017-05-05T05:55:57.953Z,11.7
2017-05-05T05:56:59.838Z,11.7
2017-05-05T05:58:01.682Z,11.7
2017-05-05T05:59:03.528Z,11.7
2017-05-05T06:00:05.416Z,11.7
2017-05-05T06:01:07.265Z,11.7
2017-05-05T06:02:09.165Z,11.7
2017-05-05T06:03:10.998Z,11.7
2017-05-05T06:04:12.856Z,11.7
2017-05-05T06:05:15.028Z,11.7
2017-05-05T06:06:16.890Z,11.7
2017-05-05T06:07:18.726Z,11.7
2017-05-05T06:08:20.575Z,11.7
2017-05-05T06:09:22.428Z,11.7
2017-05-05T06:10:24.271Z,11.7
2017-05-05T06:11:26.451Z,11.7
2017-05-05T06:12:28.317Z,11.7
2017-05-05T06:13:30.492Z,11.8
2017-05-05T06:14:32.345Z,11.8
2017-05-05T06:15:34.187Z,11.8
2017-05-05T06:16:36.029Z,11.8
2017-05-05T06:17:37.874Z,11.8
2017-05-05T06:18:39.722Z,11.8
2017-05-05T06:19:41.580Z,11.8
2017-05-05T06:20:43.434Z,11.8
2017-05-05T06:21:45.274Z,11.8
2017-05-05T06:22:47.453Z,11.8
2017-05-05T06:23:49.309Z,11.8
2017-05-05T06:24:51.185Z,11.8
2017-05-05T06:25:53.030Z,11.8
2017-05-05T06:26:54.867Z,11.8
2017-05-05T06:27:56.708Z,11.9
2017-05-05T06:28:58.547Z,11.9
2017-05-05T06:30:00.394Z,11.9
2017-05-05T06:31:02.922Z,11.9
2017-05-05T06:32:04.770Z,11.9
2017-05-05T06:33:06.617Z,11.9
2017-05-05T06:34:08.795Z,11.9
2017-05-05T06:35:10.636Z,11.9
2017-05-05T06:36:12.483Z,11.9
2017-05-05T06:37:14.332Z,11.9
2017-05-05T06:38:16.177Z,11.9
2017-05-05T06:39:18.019Z,11.9
2017-05-05T06:40:20.197Z,11.9
2017-05-05T06:41:22.031Z,11.9
2017-05-05T06:42:23.888Z,11.8
2017-05-05T06:43:25.729Z,11.8
2017-05-05T06:44:27.569Z,11.8
2017-05-05T06:45:29.413Z,11.8
2017-05-05T06:46:31.251Z,11.8
2017-05-05T06:47:33.095Z,11.8
2017-05-05T06:48:34.936Z,11.9
2017-05-05T06:49:36.790Z,11.9
2017-05-05T06:50:38.624Z,11.9
2017-05-05T06:51:40.460Z,11.9
2017-05-05T06:52:42.308Z,11.9
2017-05-05T06:53:44.151Z,11.9
2017-05-05T06:54:45.985Z,11.9
2017-05-05T06:55:47.852Z,11.9
2017-05-05T06:56:49.694Z,12
2017-05-05T06:57:51.528Z,12
2017-05-05T06:58:53.377Z,11.9
2017-05-05T06:59:55.213Z,12
2017-05-05T07:00:57.098Z,12
2017-05-05T07:01:58.931Z,12
2017-05-05T07:03:00.769Z,12
2017-05-05T07:04:02.609Z,12.1
2017-05-05T07:05:04.450Z,12
2017-05-05T07:06:06.292Z,12.1
2017-05-05T07:07:08.133Z,12
2017-05-05T07:08:09.972Z,12.1
2017-05-05T07:09:11.817Z,12.1
2017-05-05T07:10:13.995Z,12.1
2017-05-05T07:11:15.838Z,12.1
2017-05-05T07:12:17.680Z,12.1
2017-05-05T07:13:19.524Z,12.1
2017-05-05T07:14:21.368Z,12.1
2017-05-05T07:15:23.206Z,12.1
2017-05-05T07:16:25.067Z,12.1
2017-05-05T07:17:26.914Z,12.1
2017-05-05T07:18:28.754Z,12.1
2017-05-05T07:19:30.632Z,12.1
2017-05-05T07:20:32.480Z,12.2
2017-05-05T07:21:34.340Z,12.2
2017-05-05T07:22:36.184Z,12.1
2017-05-05T07:23:38.023Z,12.2
2017-05-05T07:24:39.861Z,12.2
2017-05-05T07:25:41.703Z,12.2
2017-05-05T07:26:43.558Z,12.2
2017-05-05T07:27:45.742Z,12.2
2017-05-05T07:28:47.605Z,12.2
2017-05-05T07:29:49.453Z,12.3
2017-05-05T07:30:51.657Z,12.3
2017-05-05T07:31:53.500Z,12.2
2017-05-05T07:32:55.344Z,12.3
2017-05-05T07:33:57.520Z,12.3
2017-05-05T07:34:59.717Z,12.3
2017-05-05T07:36:01.551Z,12.3
2017-05-05T07:37:03.401Z,12.4
2017-05-05T07:38:05.605Z,12.4
2017-05-05T07:39:07.444Z,12.4
2017-05-05T07:40:09.286Z,12.4
2017-05-05T07:41:11.130Z,12.5
2017-05-05T07:42:13.324Z,12.5
2017-05-05T07:43:15.166Z,12.5
2017-05-05T07:44:17.002Z,12.4
2017-05-05T07:45:19.181Z,12.4
2017-05-05T07:46:21.022Z,12.4
2017-05-05T07:47:22.874Z,12.4
2017-05-05T07:48:24.716Z,12.4
2017-05-05T07:49:26.555Z,12.4
2017-05-05T07:50:28.396Z,12.4
2017-05-05T07:51:30.241Z,12.4
2017-05-05T07:52:32.419Z,12.4
2017-05-05T07:53:34.263Z,12.4
2017-05-05T07:54:36.103Z,12.4
2017-05-05T07:55:38.295Z,12.4
2017-05-05T07:56:40.136Z,12.4
2017-05-05T07:57:41.979Z,12.4
2017-05-05T07:58:44.167Z,12.4
2017-05-05T07:59:46.038Z,12.4
2017-05-05T08:00:47.874Z,12.4
2017-05-05T08:01:49.729Z,12.4
2017-05-05T08:02:51.909Z,12.4
2017-05-05T08:03:53.761Z,12.4
2017-05-05T08:04:55.940Z,12.4
2017-05-05T08:05:57.796Z,12.4
2017-05-05T08:06:59.633Z,12.4
2017-05-05T08:08:01.474Z,12.4
2017-05-05T08:09:03.320Z,12.5
2017-05-05T08:10:05.163Z,12.5
2017-05-05T08:11:06.999Z,12.5
2017-05-05T08:12:08.850Z,12.5
2017-05-05T08:13:10.688Z,12.5
2017-05-05T08:14:12.530Z,12.5
2017-05-05T08:15:14.363Z,12.4
2017-05-05T08:16:16.206Z,12.5
2017-05-05T08:17:18.052Z,12.5
2017-05-05T08:18:19.888Z,12.5
2017-05-05T08:19:21.743Z,12.4
2017-05-05T08:20:23.949Z,12.5
2017-05-05T08:21:25.791Z,12.4
2017-05-05T08:22:27.634Z,12.4
2017-05-05T08:23:29.486Z,12.5
2017-05-05T08:24:31.327Z,12.5
2017-05-05T08:25:33.163Z,12.5
2017-05-05T08:26:35.004Z,12.5
2017-05-05T08:27:36.841Z,12.5
2017-05-05T08:28:38.691Z,12.5
2017-05-05T08:29:40.882Z,12.4
2017-05-05T08:30:42.735Z,12.4
2017-05-05T08:31:44.578Z,12.4
2017-05-05T08:32:46.425Z,12.4
2017-05-05T08:33:48.612Z,12.4
2017-05-05T08:34:50.454Z,12.4
2017-05-05T08:35:52.292Z,12.4
2017-05-05T08:36:54.142Z,12.4
2017-05-05T08:37:55.983Z,12.4
2017-05-05T08:38:58.170Z,12.4
2017-05-05T08:40:00.025Z,12.4
2017-05-05T08:41:01.871Z,12.4
2017-05-05T08:42:03.714Z,12.4
2017-05-05T08:43:05.555Z,12.4
2017-05-05T08:44:07.404Z,12.4
2017-05-05T08:45:09.247Z,12.4
2017-05-05T08:46:11.089Z,12.4
2017-05-05T08:47:12.933Z,12.4
2017-05-05T08:48:14.770Z,12.4
2017-05-05T08:49:16.615Z,12.5
2017-05-05T08:50:18.469Z,12.5
2017-05-05T08:51:20.308Z,12.5
2017-05-05T08:52:22.159Z,12.5
2017-05-05T08:53:24.012Z,12.5
2017-05-05T08:54:25.858Z,12.5
2017-05-05T08:55:27.720Z,12.5
2017-05-05T08:56:29.562Z,12.5
2017-05-05T08:57:31.408Z,12.6
2017-05-05T08:58:33.255Z,12.6
2017-05-05T08:59:35.115Z,12.6
2017-05-05T09:00:37.310Z,12.6
2017-05-05T09:01:39.483Z,12.6
2017-05-05T09:02:41.670Z,12.6
2017-05-05T09:03:43.508Z,12.6
2017-05-05T09:04:45.349Z,12.6
2017-05-05T09:05:47.194Z,12.7
2017-05-05T09:06:49.028Z,12.7
2017-05-05T09:07:50.870Z,12.7
2017-05-05T09:08:52.709Z,12.7
2017-05-05T09:09:54.898Z,12.7
2017-05-05T09:10:56.743Z,12.7
2017-05-05T09:11:58.587Z,12.8
2017-05-05T09:13:00.426Z,12.8
2017-05-05T09:14:02.282Z,12.8
2017-05-05T09:15:04.124Z,12.8
2017-05-05T09:16:05.962Z,12.8
2017-05-05T09:17:07.803Z,12.8
2017-05-05T09:18:10.019Z,12.8
2017-05-05T09:19:11.859Z,12.8
2017-05-05T09:20:13.698Z,12.8
2017-05-05T09:21:15.536Z,12.9
2017-05-05T09:22:17.372Z,12.9
2017-05-05T09:23:19.218Z,12.9
2017-05-05T09:24:21.060Z,12.9
2017-05-05T09:25:22.896Z,12.9
2017-05-05T09:26:24.748Z,12.9
2017-05-05T09:27:26.933Z,12.9
2017-05-05T09:28:28.776Z,13
2017-05-05T09:29:30.609Z,13
2017-05-05T09:30:32.465Z,13
2017-05-05T09:31:34.323Z,13
2017-05-05T09:32:36.191Z,13
2017-05-05T09:33:38.038Z,13
2017-05-05T09:34:39.888Z,13
2017-05-05T09:35:42.075Z,13.1
2017-05-05T09:36:43.921Z,13.1
2017-05-05T09:37:45.762Z,13.1
2017-05-05T09:38:47.613Z,13.1
2017-05-05T09:39:49.463Z,13.2
2017-05-05T09:40:51.311Z,13.2
2017-05-05T09:41:53.150Z,13.1
2017-05-05T09:42:54.996Z,13.2
2017-05-05T09:43:56.845Z,13.2
2017-05-05T09:44:59.020Z,13.2
2017-05-05T09:46:00.866Z,13.2
2017-05-05T09:47:02.706Z,13.2
2017-05-05T09:48:04.886Z,13.2
2017-05-05T09:49:06.732Z,13.2
2017-05-05T09:50:08.569Z,13.3
2017-05-05T09:51:10.418Z,13.3
2017-05-05T09:52:12.252Z,13.3
2017-05-05T09:53:14.098Z,13.3
2017-05-05T09:54:16.284Z,13.3
2017-05-05T09:55:18.125Z,13.3
2017-05-05T09:56:19.967Z,13.3
2017-05-05T09:57:21.809Z,13.3
2017-05-05T09:58:23.999Z,13.3
2017-05-05T09:59:25.849Z,13.3
2017-05-05T10:00:27.690Z,13.3
2017-05-05T10:01:29.536Z,13.3
2017-05-05T10:02:31.375Z,13.3
2017-05-05T10:03:33.217Z,13.2
2017-05-05T10:04:35.069Z,13.2
2017-05-05T10:05:36.909Z,13.2
2017-05-05T10:06:38.748Z,13.2
2017-05-05T10:07:40.592Z,13.2
2017-05-05T10:08:42.438Z,13.2
2017-05-05T10:09:44.282Z,13.1
2017-05-05T10:10:46.121Z,13.1
2017-05-05T10:11:47.967Z,13.1
2017-05-05T10:12:49.816Z,13.2
2017-05-05T10:13:51.661Z,13.2
2017-05-05T10:14:53.503Z,13.2
2017-05-05T10:15:55.339Z,13.2
2017-05-05T10:16:57.183Z,13.2
2017-05-05T10:17:59.364Z,13.2
2017-05-05T10:19:01.205Z,13.2
2017-05-05T10:20:03.054Z,13.2
2017-05-05T10:21:05.247Z,13.2
2017-05-05T10:22:07.089Z,13.2
2017-05-05T10:23:08.933Z,13.2
2017-05-05T10:24:10.770Z,13.2
2017-05-05T10:25:12.958Z,13.2
2017-05-05T10:26:14.802Z,13.2
2017-05-05T10:27:16.651Z,13.2
2017-05-05T10:28:18.505Z,13.2
2017-05-05T10:29:20.710Z,13.1
2017-05-05T10:30:22.899Z,13.1
2017-05-05T10:31:24.747Z,13.1
2017-05-05T10:32:26.583Z,13.1
2017-05-05T10:33:28.773Z,13.1
2017-05-05T10:34:30.619Z,13.1
2017-05-05T10:35:32.461Z,13.1
2017-05-05T10:36:34.309Z,13.1
2017-05-05T10:37:36.149Z,13.1
2017-05-05T10:38:38.359Z,13.1
2017-05-05T10:39:40.205Z,13.2
2017-05-05T10:40:42.050Z,13.1
2017-05-05T10:41:43.905Z,13.1
2017-05-05T10:42:45.754Z,13.1
2017-05-05T10:43:47.598Z,13.2
2017-05-05T10:44:49.436Z,13.2
2017-05-05T10:45:51.283Z,13.2
2017-05-05T10:46:53.124Z,13.2
2017-05-05T10:47:54.966Z,13.3
2017-05-05T10:48:57.157Z,13.3
2017-05-05T10:49:58.999Z,13.3
2017-05-05T10:51:01.182Z,13.3
2017-05-05T10:52:03.026Z,13.3
2017-05-05T10:53:04.875Z,13.3
2017-05-05T10:54:07.729Z,13.3
2017-05-05T10:55:09.570Z,13.3
2017-05-05T10:56:11.412Z,13.3
2017-05-05T10:57:13.260Z,13.4
2017-05-05T10:58:15.445Z,13.4
2017-05-05T10:59:17.303Z,13.4
2017-05-05T11:00:19.142Z,13.4
2017-05-05T11:01:20.995Z,13.4
2017-05-05T11:02:22.842Z,13.4
2017-05-05T11:03:24.696Z,13.4
2017-05-05T11:04:26.884Z,13.3
2017-05-05T11:05:29.073Z,13.3
2017-05-05T11:06:31.263Z,13.3
2017-05-05T11:07:33.114Z,13.4
2017-05-05T11:08:34.971Z,13.4
2017-05-05T11:09:37.495Z,13.4
2017-05-05T11:10:39.683Z,13.4
2017-05-05T11:11:41.528Z,13.5
2017-05-05T11:12:43.381Z,13.5
2017-05-05T11:13:45.220Z,13.5
2017-05-05T11:14:47.066Z,13.5
2017-05-05T11:15:48.923Z,13.5
2017-05-05T11:16:50.768Z,13.5
2017-05-05T11:17:52.618Z,13.5
2017-05-05T11:18:54.462Z,13.5
2017-05-05T11:19:56.312Z,13.5
2017-05-05T11:20:58.156Z,13.5
2017-05-05T11:22:00.001Z,13.6
2017-05-05T11:23:01.863Z,13.6
2017-05-05T11:24:03.706Z,13.6
2017-05-05T11:25:05.549Z,13.7
2017-05-05T11:26:07.400Z,13.7
2017-05-05T11:27:09.247Z,13.7
2017-05-05T11:28:11.081Z,13.7
2017-05-05T11:29:12.922Z,13.7
2017-05-05T11:30:14.778Z,13.7
2017-05-05T11:31:16.632Z,13.8
2017-05-05T11:32:18.468Z,13.7
2017-05-05T11:33:20.658Z,13.7
2017-05-05T11:34:22.506Z,13.7
2017-05-05T11:35:24.355Z,13.7
2017-05-05T11:36:26.201Z,13.7
2017-05-05T11:37:28.045Z,13.7
2017-05-05T11:38:29.895Z,13.7
2017-05-05T11:39:31.737Z,13.6
2017-05-05T11:40:33.923Z,13.6
2017-05-05T11:41:35.765Z,13.6
2017-05-05T11:42:37.981Z,13.7
2017-05-05T11:43:39.831Z,13.7
2017-05-05T11:44:41.682Z,13.7
2017-05-05T11:45:43.529Z,13.7
2017-05-05T11:46:45.374Z,13.7
2017-05-05T11:47:47.226Z,13.7
2017-05-05T11:48:49.069Z,13.7
2017-05-05T11:49:50.914Z,13.7
2017-05-05T11:50:52.757Z,13.7
2017-05-05T11:51:54.598Z,13.7
2017-05-05T11:52:56.446Z,13.7
2017-05-05T11:53:58.296Z,13.7
2017-05-05T11:55:00.135Z,13.7
2017-05-05T11:56:01.982Z,13.7
2017-05-05T11:57:03.830Z,13.7
2017-05-05T11:58:06.020Z,13.7
2017-05-05T11:59:07.868Z,13.7
2017-05-05T12:00:09.710Z,13.7
2017-05-05T12:01:11.552Z,13.7
2017-05-05T12:02:13.393Z,13.6
2017-05-05T12:03:15.251Z,13.6
2017-05-05T12:04:17.096Z,13.6
2017-05-05T12:05:18.942Z,13.6
2017-05-05T12:06:20.785Z,13.6
2017-05-05T12:07:23.304Z,13.6
2017-05-05T12:08:25.146Z,13.6
2017-05-05T12:09:26.988Z,13.6
2017-05-05T12:10:28.833Z,13.6
2017-05-05T12:11:30.690Z,13.6
2017-05-05T12:12:32.535Z,13.6
2017-05-05T12:13:34.377Z,13.7
2017-05-05T12:14:48.945Z,13.7
2017-05-05T12:15:50.758Z,13.7
2017-05-05T12:16:52.578Z,13.8
2017-05-05T12:17:54.390Z,13.8
2017-05-05T12:18:56.568Z,13.8
2017-05-05T12:19:58.400Z,13.9
2017-05-05T12:21:00.218Z,13.9
2017-05-05T12:22:02.042Z,13.9
2017-05-05T12:23:03.873Z,13.9
2017-05-05T12:24:05.705Z,13.9
2017-05-05T12:25:07.522Z,13.9
2017-05-05T12:26:09.339Z,14
2017-05-05T12:27:11.491Z,14
2017-05-05T12:28:13.324Z,14
2017-05-05T12:29:15.141Z,14
2017-05-05T12:30:17.287Z,14
2017-05-05T12:31:19.099Z,14
2017-05-05T12:32:20.924Z,14
2017-05-05T12:33:22.735Z,14
2017-05-05T12:34:24.546Z,14
2017-05-05T12:35:26.365Z,14
2017-05-05T12:36:28.176Z,14
2017-05-05T12:37:30.000Z,14
2017-05-05T12:38:31.811Z,14
2017-05-05T12:39:33.619Z,13.9
2017-05-05T12:40:35.432Z,13.9
2017-05-05T12:41:37.258Z,13.9
2017-05-05T12:42:39.080Z,13.9
2017-05-05T12:43:41.228Z,14
2017-05-05T12:46:45.090Z,14
2017-05-05T12:47:47.332Z,14
2017-05-05T12:48:49.210Z,14
2017-05-05T12:49:51.087Z,14
2017-05-05T12:50:52.973Z,14
2017-05-05T12:51:54.885Z,14
2017-05-05T12:52:56.777Z,14
2017-05-05T12:53:58.994Z,14
2017-05-05T12:55:00.877Z,14
2017-05-05T12:56:02.780Z,14
2017-05-05T12:57:04.649Z,14
2017-05-05T12:58:06.535Z,14.1
2017-05-05T12:59:08.415Z,14.1
2017-05-05T13:00:10.311Z,14.1
2017-05-05T13:01:12.187Z,14.1
2017-05-05T13:02:14.092Z,14.1
2017-05-05T13:03:15.973Z,14.2
2017-05-05T13:04:17.852Z,14.2
2017-05-05T13:05:19.747Z,14.2
2017-05-05T13:06:21.628Z,14.2
2017-05-05T13:07:23.508Z,14.2
2017-05-05T13:08:25.409Z,14.3
2017-05-05T13:09:27.291Z,14.3
2017-05-05T13:10:29.176Z,14.3
2017-05-05T13:11:31.043Z,14.3
2017-05-05T13:12:33.263Z,14.4
2017-05-05T13:13:35.146Z,14.4
2017-05-05T13:14:37.040Z,14.4
2017-05-05T13:15:38.938Z,14.4
2017-05-05T13:16:40.810Z,14.4
2017-05-05T13:17:42.707Z,14.4
2017-05-05T13:18:44.595Z,14.5
2017-05-05T13:19:46.473Z,14.5
2017-05-05T13:20:48.365Z,14.5
2017-05-05T13:21:50.597Z,14.5
2017-05-05T13:22:52.486Z,14.5
2017-05-05T13:23:54.365Z,14.5
2017-05-05T13:24:56.262Z,14.5
2017-05-05T13:25:58.135Z,14.5
2017-05-05T13:27:00.015Z,14.5
2017-05-05T13:28:01.911Z,14.5
2017-05-05T13:29:03.818Z,14.5
2017-05-05T13:30:05.699Z,14.5
2017-05-05T13:31:07.590Z,14.5
2017-05-05T13:32:09.822Z,14.6
2017-05-05T13:33:12.056Z,14.5
2017-05-05T13:34:13.932Z,14.5
2017-05-05T13:35:15.811Z,14.5
2017-05-05T13:36:17.685Z,14.5
2017-05-05T13:37:19.574Z,14.6
2017-05-05T13:38:21.453Z,14.6
2017-05-05T13:39:23.335Z,14.6
2017-05-05T13:40:25.204Z,14.6
2017-05-05T13:41:27.086Z,14.6
2017-05-05T13:42:28.984Z,14.6
2017-05-05T13:43:30.867Z,14.7
2017-05-05T13:44:32.735Z,14.6
2017-05-05T13:45:34.621Z,14.6
2017-05-05T13:46:36.855Z,14.6
2017-05-05T13:47:39.085Z,14.6
2017-05-05T13:48:40.965Z,14.6
2017-05-05T13:49:42.838Z,14.6
2017-05-05T13:50:44.730Z,14.6
2017-05-05T13:51:46.604Z,14.6
2017-05-05T13:52:48.484Z,14.6
2017-05-05T13:53:50.360Z,14.6